createdAt,value
2019-04-14T00:01:54.778Z,2.70
2019-04-14T00:04:16.119Z,2.70
2019-04-14T00:06:20.556Z,2.70
2019-04-14T00:08:24.484Z,2.70
2019-04-14T00:10:29.004Z,2.60
2019-04-14T00:12:33.732Z,2.70
2019-04-14T00:14:38.262Z,2.60
2019-04-14T00:16:42.493Z,2.50
2019-04-14T00:18:46.982Z,2.50
2019-04-14T00:20:51.209Z,2.60
2019-04-14T00:22:55.534Z,2.60
2019-04-14T00:24:59.768Z,2.60
2019-04-14T00:27:04.224Z,2.50
2019-04-14T00:29:08.944Z,2.50
2019-04-14T00:31:13.083Z,2.50
2019-04-14T00:33:19.242Z,2.50
2019-04-14T00:35:30.390Z,2.50
2019-04-14T00:37:40.208Z,2.50
2019-04-14T00:39:48.965Z,2.60
2019-04-14T00:42:19.039Z,2.50
2019-04-14T00:44:42.995Z,2.50
2019-04-14T00:46:54.033Z,2.50
2019-04-14T00:48:58.180Z,2.50
2019-04-14T00:51:02.784Z,2.40
2019-04-14T00:53:07.704Z,2.40
2019-04-14T00:55:11.900Z,2.40
2019-04-14T00:57:15.994Z,2.40
2019-04-14T00:59:20.161Z,2.40
2019-04-14T01:01:24.413Z,2.40
2019-04-14T01:03:28.755Z,2.40
2019-04-14T01:05:34.453Z,2.40
2019-04-14T01:07:39.156Z,2.30
2019-04-14T01:09:44.131Z,2.30
2019-04-14T01:11:48.803Z,2.30
2019-04-14T01:13:53.052Z,2.20
2019-04-14T01:16:03.878Z,2.20
2019-04-14T01:18:03.597Z,2.20
2019-04-14T01:20:07.949Z,2.10
2019-04-14T01:22:12.000Z,2.10
2019-04-14T01:24:16.357Z,2.10
2019-04-14T01:26:20.418Z,2.00
2019-04-14T01:28:24.398Z,2.00
2019-04-14T01:30:28.442Z,2.00
2019-04-14T01:32:32.648Z,2.00
2019-04-14T01:34:37.117Z,2.00
2019-04-14T01:36:41.033Z,1.90
2019-04-14T01:38:45.029Z,1.90
2019-04-14T01:40:48.952Z,1.80
2019-04-14T01:42:53.099Z,1.70
2019-04-14T01:44:57.115Z,1.70
2019-04-14T01:47:01.086Z,1.70
2019-04-14T01:49:05.096Z,1.70
2019-04-14T01:51:28.886Z,1.70
2019-04-14T01:54:10.663Z,1.60
2019-04-14T01:56:38.444Z,1.60
2019-04-14T01:58:46.894Z,1.60
2019-04-14T02:00:55.331Z,1.50
2019-04-14T02:02:59.735Z,1.50
2019-04-14T02:05:04.116Z,1.50
2019-04-14T02:07:08.204Z,1.40
2019-04-14T02:09:12.607Z,1.40
2019-04-14T02:11:16.619Z,1.40
2019-04-14T02:13:20.578Z,1.40
2019-04-14T02:15:24.517Z,1.40
2019-04-14T02:17:28.587Z,1.30
2019-04-14T02:19:32.776Z,1.30
2019-04-14T02:21:37.052Z,1.30
2019-04-14T02:23:41.189Z,1.30
2019-04-14T02:25:45.257Z,1.30
2019-04-14T02:27:49.393Z,1.30
2019-04-14T02:29:53.853Z,1.30
2019-04-14T02:32:30.288Z,1.30
2019-04-14T02:34:34.902Z,1.30
2019-04-14T02:36:38.516Z,1.30
2019-04-14T02:39:01.352Z,1.20
2019-04-14T02:40:55.451Z,1.20
2019-04-14T02:42:56.302Z,1.30
2019-04-14T02:45:02.451Z,1.40
2019-04-14T02:49:08.144Z,1.40
2019-04-14T02:55:23.573Z,1.50
2019-04-14T02:57:30.882Z,1.50
2019-04-14T02:59:42.969Z,1.50
2019-04-14T03:04:01.598Z,1.60
2019-04-14T03:06:12.575Z,1.70
2019-04-14T03:08:04.264Z,1.70
2019-04-14T03:10:04.228Z,1.70
2019-04-14T03:12:09.683Z,1.70
2019-04-14T03:14:27.835Z,1.70
2019-04-14T03:16:29.676Z,1.70
2019-04-14T03:21:05.943Z,1.70
2019-04-14T03:23:20.927Z,1.80
2019-04-14T03:25:15.284Z,1.90
2019-04-14T03:27:39.969Z,1.90
2019-04-14T03:29:43.703Z,1.90
2019-04-14T03:38:18.486Z,2.00
2019-04-14T03:40:09.992Z,2.10
2019-04-14T03:42:21.232Z,2.10
2019-04-14T03:44:28.620Z,2.10
2019-04-14T03:46:37.014Z,2.20
2019-04-14T03:50:49.438Z,2.20
2019-04-14T03:53:09.934Z,2.20
2019-04-14T03:54:47.184Z,2.20
2019-04-14T03:56:59.504Z,2.20
2019-04-14T03:59:04.229Z,2.20
2019-04-14T04:01:08.372Z,2.30
2019-04-14T04:03:12.811Z,2.20
2019-04-14T04:05:17.367Z,2.30
2019-04-14T04:07:21.444Z,2.30
2019-04-14T04:09:36.511Z,2.30
2019-04-14T04:11:41.191Z,2.30
2019-04-14T04:13:45.530Z,2.30
2019-04-14T04:15:50.332Z,2.30
2019-04-14T04:18:03.341Z,2.30
2019-04-14T04:20:21.745Z,2.40
2019-04-14T04:22:58.720Z,2.40
2019-04-14T04:25:14.672Z,2.40
2019-04-14T04:27:28.768Z,2.40
2019-04-14T04:29:48.414Z,2.50
2019-04-14T04:32:14.444Z,2.50
2019-04-14T04:34:53.434Z,2.60
2019-04-14T04:37:04.001Z,2.60
2019-04-14T04:39:36.976Z,2.60
2019-04-14T04:41:42.807Z,2.70
2019-04-14T04:43:47.346Z,2.70
2019-04-14T04:45:51.669Z,2.70
2019-04-14T04:47:55.810Z,2.70
2019-04-14T04:50:00.026Z,2.70
2019-04-14T04:52:04.246Z,2.70
2019-04-14T04:54:08.395Z,2.70
2019-04-14T04:56:12.437Z,2.60
2019-04-14T04:58:17.335Z,2.60
2019-04-14T05:00:22.162Z,2.60
2019-04-14T05:02:26.688Z,2.60
2019-04-14T05:04:30.870Z,2.60
2019-04-14T05:07:01.543Z,2.60
2019-04-14T05:09:13.055Z,2.60
2019-04-14T05:11:31.708Z,2.60
2019-04-14T05:13:38.208Z,2.60
2019-04-14T05:15:48.954Z,2.60
2019-04-14T05:17:53.778Z,2.60
2019-04-14T05:19:58.396Z,2.50
2019-04-14T05:22:02.805Z,2.60
2019-04-14T05:24:07.065Z,2.50
2019-04-14T05:26:11.322Z,2.50
2019-04-14T05:28:15.609Z,2.60
2019-04-14T05:30:19.740Z,2.60
2019-04-14T05:32:24.074Z,2.60
2019-04-14T05:34:28.328Z,2.60
2019-04-14T05:36:32.537Z,2.60
2019-04-14T05:38:36.964Z,2.70
2019-04-14T05:40:40.939Z,2.70
2019-04-14T05:42:45.121Z,2.80
2019-04-14T05:44:49.456Z,2.80
2019-04-14T05:46:53.556Z,2.90
2019-04-14T05:48:57.853Z,2.90
2019-04-14T05:51:02.051Z,3.00
2019-04-14T05:53:06.487Z,3.00
2019-04-14T05:55:11.261Z,3.10
2019-04-14T05:57:15.537Z,3.10
2019-04-14T05:59:19.852Z,3.20
2019-04-14T06:01:24.798Z,3.30
2019-04-14T06:03:29.840Z,3.30
2019-04-14T06:05:34.062Z,3.40
2019-04-14T06:07:37.964Z,3.50
2019-04-14T06:09:41.844Z,3.60
2019-04-14T06:11:46.078Z,3.70
2019-04-14T06:13:49.963Z,3.70
2019-04-14T06:15:53.918Z,3.80
2019-04-14T06:17:58.007Z,3.90
2019-04-14T06:20:01.939Z,4.00
2019-04-14T06:22:05.783Z,4.00
2019-04-14T06:24:09.775Z,4.00
2019-04-14T06:26:13.652Z,4.10
2019-04-14T06:28:17.563Z,4.10
2019-04-14T06:30:40.194Z,4.10
2019-04-14T06:32:44.804Z,4.10
2019-04-14T06:35:07.771Z,4.20
2019-04-14T06:37:20.227Z,4.20
2019-04-14T06:39:29.735Z,4.30
2019-04-14T06:41:33.599Z,4.30
2019-04-14T06:43:48.274Z,4.40
2019-04-14T06:45:43.628Z,4.50
2019-04-14T06:47:47.453Z,4.60
2019-04-14T06:49:51.411Z,4.70
2019-04-14T06:51:55.390Z,4.70
2019-04-14T06:53:59.383Z,4.80
2019-04-14T06:56:03.268Z,4.90
2019-04-14T06:58:07.176Z,5.00
2019-04-14T07:00:11.318Z,5.10
2019-04-14T07:02:15.232Z,5.20
2019-04-14T07:04:19.070Z,5.10
2019-04-14T07:06:22.959Z,5.20
2019-04-14T07:08:29.780Z,5.10
2019-04-14T07:10:32.652Z,5.10
2019-04-14T07:12:36.583Z,5.20
2019-04-14T07:14:40.666Z,5.20
2019-04-14T07:16:44.679Z,5.20
2019-04-14T07:18:48.663Z,5.20
2019-04-14T07:20:52.588Z,5.30
2019-04-14T07:22:56.506Z,5.40
2019-04-14T07:25:00.470Z,5.50
2019-04-14T07:27:04.388Z,5.60
2019-04-14T07:29:08.387Z,5.60
2019-04-14T07:31:28.908Z,5.70
2019-04-14T07:33:44.676Z,5.90
2019-04-14T07:36:06.296Z,6.00
2019-04-14T07:38:15.439Z,6.10
2019-04-14T07:40:37.357Z,6.10
2019-04-14T07:42:54.016Z,6.20
2019-04-14T07:45:16.335Z,6.30
2019-04-14T07:47:37.014Z,6.20
2019-04-14T07:49:57.384Z,6.20
2019-04-14T07:52:26.339Z,6.20
2019-04-14T07:55:11.328Z,6.10
2019-04-14T07:57:34.240Z,6.10
2019-04-14T07:59:49.203Z,6.20
2019-04-14T08:01:56.407Z,6.30
2019-04-14T08:04:05.702Z,6.30
2019-04-14T08:06:09.656Z,6.30
2019-04-14T08:08:13.575Z,6.20
2019-04-14T08:10:17.497Z,6.20
2019-04-14T08:12:21.363Z,6.30
2019-04-14T08:14:25.431Z,6.40
2019-04-14T08:16:29.426Z,6.40
2019-04-14T08:18:33.613Z,6.30
2019-04-14T08:20:38.024Z,6.40
2019-04-14T08:22:41.879Z,6.40
2019-04-14T08:24:45.793Z,6.40
2019-04-14T08:26:50.358Z,6.40
2019-04-14T08:28:54.237Z,6.40
2019-04-14T08:30:58.264Z,6.40
2019-04-14T08:33:02.116Z,6.70
2019-04-14T08:35:06.461Z,6.80
2019-04-14T08:37:10.380Z,6.90
2019-04-14T08:39:14.310Z,7.00
2019-04-14T08:41:18.757Z,7.00
2019-04-14T08:43:30.819Z,7.10
2019-04-14T08:45:51.221Z,7.30
2019-04-14T08:48:09.127Z,7.10
2019-04-14T08:50:39.644Z,7.00
2019-04-14T08:52:59.790Z,7.10
2019-04-14T08:55:10.796Z,7.10
2019-04-14T08:57:33.779Z,6.90
2019-04-14T08:59:55.667Z,6.90
2019-04-14T09:02:13.795Z,6.90
2019-04-14T09:04:51.883Z,6.90
2019-04-14T09:07:17.713Z,7.10
2019-04-14T09:09:31.141Z,7.00
2019-04-14T09:11:40.007Z,7.10
2019-04-14T09:13:44.601Z,7.00
2019-04-14T09:15:48.527Z,7.00
2019-04-14T09:17:52.383Z,6.90
2019-04-14T09:19:56.711Z,7.00
2019-04-14T09:22:00.556Z,7.20
2019-04-14T09:24:04.927Z,7.30
2019-04-14T09:26:08.911Z,7.40
2019-04-14T09:28:12.867Z,7.50
2019-04-14T09:30:17.057Z,7.60
2019-04-14T09:32:21.443Z,7.80
2019-04-14T09:34:25.315Z,8.10
2019-04-14T09:36:29.219Z,8.40
2019-04-14T09:38:33.068Z,8.90
2019-04-14T09:40:36.966Z,9.60
2019-04-14T09:42:41.050Z,9.10
2019-04-14T09:44:45.047Z,8.90
2019-04-14T09:46:49.059Z,10.10
2019-04-14T09:48:53.154Z,8.60
2019-04-14T09:51:04.638Z,8.90
2019-04-14T09:53:02.749Z,8.80
2019-04-14T09:55:07.003Z,9.60
2019-04-14T09:57:10.960Z,9.30
2019-04-14T09:59:15.015Z,8.90
2019-04-14T10:01:18.960Z,8.50
2019-04-14T10:03:22.964Z,8.50
2019-04-14T10:05:26.848Z,9.10
2019-04-14T10:07:30.717Z,9.00
2019-04-14T10:09:34.715Z,9.00
2019-04-14T10:11:48.555Z,9.40
2019-04-14T10:13:44.255Z,9.50
2019-04-14T10:15:48.144Z,9.00
2019-04-14T10:17:51.990Z,8.50
2019-04-14T10:19:55.884Z,8.30
2019-04-14T10:21:59.818Z,8.20
2019-04-14T10:24:03.797Z,8.00
2019-04-14T10:26:07.800Z,7.70
2019-04-14T10:28:11.689Z,7.60
2019-04-14T10:30:15.751Z,7.60
2019-04-14T10:32:19.683Z,7.60
2019-04-14T10:34:23.573Z,7.40
2019-04-14T10:36:27.784Z,7.40
2019-04-14T10:38:31.722Z,7.20
2019-04-14T10:40:35.595Z,7.20
2019-04-14T10:42:39.652Z,7.30
2019-04-14T10:44:43.696Z,7.50
2019-04-14T10:46:47.699Z,7.50
2019-04-14T10:48:51.695Z,7.80
2019-04-14T10:50:56.007Z,7.90
2019-04-14T10:53:00.067Z,8.00
2019-04-14T10:55:04.659Z,8.00
2019-04-14T10:57:08.886Z,8.00
2019-04-14T10:59:12.855Z,7.70
2019-04-14T11:01:16.871Z,7.40
2019-04-14T11:03:20.742Z,7.30
2019-04-14T11:05:26.487Z,7.40
2019-04-14T11:07:31.666Z,7.40
2019-04-14T11:09:35.645Z,7.40
2019-04-14T11:11:39.535Z,7.50
2019-04-14T11:13:43.390Z,7.50
2019-04-14T11:15:47.334Z,7.70
2019-04-14T11:17:51.159Z,7.60
2019-04-14T11:19:54.995Z,7.70
2019-04-14T11:21:58.985Z,7.50
2019-04-14T11:24:02.825Z,7.40
2019-04-14T11:26:06.735Z,7.20
2019-04-14T11:28:10.837Z,7.10
2019-04-14T11:30:18.899Z,7.10
2019-04-14T11:33:00.435Z,7.00
2019-04-14T11:35:16.240Z,7.00
2019-04-14T11:37:36.205Z,6.90
2019-04-14T11:39:40.444Z,7.10
2019-04-14T11:41:47.889Z,7.20
2019-04-14T11:43:52.011Z,7.40
2019-04-14T11:45:56.062Z,7.50
2019-04-14T11:47:59.899Z,7.40
2019-04-14T11:50:04.058Z,7.30
2019-04-14T11:52:07.905Z,7.30
2019-04-14T11:54:11.871Z,7.10
2019-04-14T11:56:15.955Z,7.00
2019-04-14T11:58:19.808Z,7.10
2019-04-14T12:00:36.208Z,7.10
2019-04-14T12:03:05.279Z,7.00
2019-04-14T12:05:17.264Z,7.00
2019-04-14T12:07:28.315Z,7.00
2019-04-14T12:09:38.092Z,7.10
2019-04-14T12:11:42.327Z,7.10
2019-04-14T12:13:46.155Z,7.10
2019-04-14T12:15:50.019Z,7.10
2019-04-14T12:17:53.884Z,7.20
2019-04-14T12:19:58.035Z,7.30
2019-04-14T12:22:08.290Z,7.40
2019-04-14T12:24:07.414Z,7.50
2019-04-14T12:26:11.343Z,7.60
2019-04-14T12:28:15.276Z,7.60
2019-04-14T12:30:20.192Z,7.70
2019-04-14T12:32:24.176Z,7.70
2019-04-14T12:34:28.027Z,7.60
2019-04-14T12:36:32.247Z,7.60
2019-04-14T12:38:36.337Z,7.60
2019-04-14T12:40:40.553Z,7.70
2019-04-14T12:43:02.377Z,7.60
2019-04-14T12:45:20.515Z,7.50
2019-04-14T12:47:42.138Z,7.50
2019-04-14T12:49:48.658Z,7.70
2019-04-14T12:52:20.582Z,8.00
2019-04-14T12:54:15.852Z,8.20
2019-04-14T12:56:23.595Z,7.90
2019-04-14T12:58:38.870Z,7.80
2019-04-14T13:00:48.920Z,7.70
2019-04-14T13:02:52.983Z,7.60
2019-04-14T13:04:56.919Z,7.60
2019-04-14T13:07:00.822Z,7.60
2019-04-14T13:09:05.971Z,7.60
2019-04-14T13:11:09.869Z,7.70
2019-04-14T13:13:13.946Z,7.70
2019-04-14T13:15:17.782Z,7.70
2019-04-14T13:17:21.751Z,7.70
2019-04-14T13:19:25.734Z,7.70
2019-04-14T13:21:29.763Z,7.70
2019-04-14T13:23:33.695Z,7.80
2019-04-14T13:25:37.623Z,7.80
2019-04-14T13:27:41.640Z,7.80
2019-04-14T13:29:45.606Z,7.80
2019-04-14T13:31:49.495Z,7.80
2019-04-14T13:33:54.872Z,7.70
2019-04-14T13:35:59.029Z,7.80
2019-04-14T13:38:02.867Z,7.70
2019-04-14T13:40:07.355Z,7.60
2019-04-14T13:42:11.497Z,7.50
2019-04-14T13:44:15.575Z,7.50
2019-04-14T13:46:19.536Z,7.40
2019-04-14T13:48:23.399Z,7.50
2019-04-14T13:50:27.561Z,7.50
2019-04-14T13:52:31.564Z,7.60
2019-04-14T13:54:35.431Z,7.60
2019-04-14T13:56:39.558Z,7.60
2019-04-14T13:58:43.867Z,7.60
2019-04-14T14:00:49.322Z,7.60
2019-04-14T14:02:53.260Z,7.60
2019-04-14T14:04:57.199Z,7.60
2019-04-14T14:07:01.127Z,7.60
2019-04-14T14:09:09.851Z,7.60
2019-04-14T14:11:22.883Z,7.60
2019-04-14T14:13:55.075Z,7.60
2019-04-14T14:16:16.820Z,7.60
2019-04-14T14:18:45.878Z,7.60
2019-04-14T14:21:14.990Z,7.60
2019-04-14T14:23:27.820Z,7.60
2019-04-14T14:25:35.883Z,7.60
2019-04-14T14:27:39.747Z,7.60
2019-04-14T14:29:43.698Z,7.60
2019-04-14T14:31:47.645Z,7.70
2019-04-14T14:33:51.575Z,7.70
2019-04-14T14:35:55.415Z,7.70
2019-04-14T14:37:59.259Z,7.60
2019-04-14T14:40:03.486Z,7.70
2019-04-14T14:42:07.591Z,7.70
2019-04-14T14:44:11.518Z,7.70
2019-04-14T14:46:33.523Z,7.80
2019-04-14T14:48:58.659Z,7.80
2019-04-14T14:51:11.030Z,7.80
2019-04-14T14:53:14.999Z,8.00
2019-04-14T14:55:19.079Z,8.10
2019-04-14T14:57:23.014Z,8.20
2019-04-14T14:59:26.965Z,8.20
2019-04-14T15:01:31.888Z,8.30
2019-04-14T15:03:35.903Z,8.30
2019-04-14T15:05:40.028Z,8.30
2019-04-14T15:07:44.004Z,8.30
2019-04-14T15:09:48.161Z,8.20
2019-04-14T15:11:52.230Z,8.20
2019-04-14T15:13:56.661Z,8.30
2019-04-14T15:16:00.838Z,8.20
2019-04-14T15:18:05.083Z,8.20
2019-04-14T15:20:09.142Z,8.20
2019-04-14T15:22:13.551Z,7.90
2019-04-14T15:24:17.540Z,7.90
2019-04-14T15:26:21.411Z,7.80
2019-04-14T15:28:25.264Z,7.70
2019-04-14T15:30:29.718Z,7.70
2019-04-14T15:32:33.571Z,7.80
2019-04-14T15:34:37.482Z,7.80
2019-04-14T15:36:41.507Z,7.70
2019-04-14T15:38:45.358Z,7.70
2019-04-14T15:40:49.375Z,7.70
2019-04-14T15:42:53.347Z,7.70
2019-04-14T15:44:57.323Z,7.70
2019-04-14T15:47:01.434Z,7.70
2019-04-14T15:49:05.441Z,7.70
2019-04-14T15:51:09.483Z,7.60
2019-04-14T15:53:13.366Z,7.60
2019-04-14T15:55:18.562Z,7.70
2019-04-14T15:57:28.412Z,7.70
2019-04-14T16:00:00.567Z,7.70
2019-04-14T16:02:26.616Z,7.80
2019-04-14T16:04:45.574Z,7.80
2019-04-14T16:07:04.614Z,7.80
2019-04-14T16:09:21.243Z,7.80
2019-04-14T16:11:34.443Z,7.80
2019-04-14T16:13:56.140Z,7.90
2019-04-14T16:16:23.153Z,7.80
2019-04-14T16:18:42.107Z,7.90
2019-04-14T16:20:45.965Z,7.80
2019-04-14T16:22:49.835Z,7.90
2019-04-14T16:24:53.858Z,7.90
2019-04-14T16:27:06.800Z,7.90
2019-04-14T16:29:31.651Z,7.90
2019-04-14T16:31:57.532Z,7.90
2019-04-14T16:34:26.311Z,7.90
2019-04-14T16:36:30.549Z,7.80
2019-04-14T16:38:34.467Z,7.70
2019-04-14T16:40:38.691Z,7.80
2019-04-14T16:42:42.754Z,7.70
2019-04-14T16:44:46.591Z,7.70
2019-04-14T16:46:50.609Z,7.70
2019-04-14T16:48:54.611Z,7.60
2019-04-14T16:50:59.945Z,7.60
2019-04-14T16:53:18.491Z,7.50
2019-04-14T16:55:34.115Z,7.50
2019-04-14T16:58:09.155Z,7.50
2019-04-14T17:00:17.446Z,7.50
2019-04-14T17:02:21.477Z,7.40
2019-04-14T17:04:25.402Z,7.40
2019-04-14T17:06:29.279Z,7.40
2019-04-14T17:08:33.229Z,7.50
2019-04-14T17:10:37.134Z,7.40
2019-04-14T17:12:40.955Z,7.40
2019-04-14T17:14:54.861Z,7.40
2019-04-14T17:17:09.350Z,7.40
2019-04-14T17:19:32.462Z,7.30
2019-04-14T17:21:46.713Z,7.30
2019-04-14T17:23:56.835Z,7.30
2019-04-14T17:26:09.535Z,7.30
2019-04-14T17:28:23.097Z,7.30
2019-04-14T17:30:49.400Z,7.30
2019-04-14T17:33:11.425Z,7.20
2019-04-14T17:35:30.909Z,7.20
2019-04-14T17:37:43.816Z,7.10
2019-04-14T17:39:58.412Z,7.10
2019-04-14T17:42:33.551Z,7.00
2019-04-14T17:44:44.784Z,7.00
2019-04-14T17:47:06.537Z,7.00
2019-04-14T17:49:32.595Z,7.00
2019-04-14T17:51:58.315Z,7.00
2019-04-14T17:54:12.144Z,7.00
2019-04-14T17:56:20.394Z,6.90
2019-04-14T17:58:29.993Z,6.90
2019-04-14T18:00:52.968Z,6.90
2019-04-14T18:03:00.464Z,6.90
2019-04-14T18:05:29.879Z,6.90
2019-04-14T18:07:38.567Z,6.90
2019-04-14T18:09:58.368Z,6.80
2019-04-14T18:12:16.626Z,6.80
2019-04-14T18:14:26.335Z,6.80
2019-04-14T18:16:48.102Z,6.80
2019-04-14T18:19:14.617Z,6.80
2019-04-14T18:21:18.443Z,6.80
2019-04-14T18:23:22.439Z,6.70
2019-04-14T18:25:26.301Z,6.70
2019-04-14T18:27:33.227Z,6.80
2019-04-14T18:29:41.791Z,6.70
2019-04-14T18:31:50.716Z,6.70
2019-04-14T18:34:20.027Z,6.70
2019-04-14T18:36:44.868Z,6.70
2019-04-14T18:39:10.980Z,6.70
2019-04-14T18:41:27.874Z,6.70
2019-04-14T18:43:49.613Z,6.70
2019-04-14T18:46:01.746Z,6.70
2019-04-14T18:48:14.813Z,6.70
2019-04-14T18:50:24.231Z,6.70
2019-04-14T18:52:50.208Z,6.70
2019-04-14T18:55:13.912Z,6.70
2019-04-14T18:57:32.960Z,6.70
2019-04-14T18:59:58.763Z,6.70
2019-04-14T19:02:02.813Z,6.70
2019-04-14T19:04:06.683Z,6.70
2019-04-14T19:06:10.687Z,6.70
2019-04-14T19:08:14.568Z,6.70
2019-04-14T19:10:18.594Z,6.70
2019-04-14T19:12:42.259Z,6.70
2019-04-14T19:14:46.597Z,6.80
2019-04-14T19:16:56.064Z,6.80
2019-04-14T19:19:00.957Z,6.80
2019-04-14T19:21:07.848Z,6.80
2019-04-14T19:23:11.783Z,6.80
2019-04-14T19:25:15.788Z,6.80
2019-04-14T19:27:19.779Z,6.90
2019-04-14T19:29:23.735Z,6.90
2019-04-14T19:31:27.670Z,6.90
2019-04-14T19:33:31.744Z,6.90
2019-04-14T19:35:35.771Z,6.90
2019-04-14T19:37:40.042Z,6.90
2019-04-14T19:39:43.991Z,6.90
2019-04-14T19:41:47.940Z,7.00
2019-04-14T19:43:51.875Z,7.00
2019-04-14T19:45:56.597Z,6.90
2019-04-14T19:48:00.537Z,7.00
2019-04-14T19:50:05.290Z,6.90
2019-04-14T19:52:09.334Z,7.00
2019-04-14T19:54:13.319Z,7.00
2019-04-14T19:56:19.867Z,7.00
2019-04-14T19:58:23.731Z,7.00
2019-04-14T20:00:27.724Z,7.00
2019-04-14T20:02:31.697Z,7.00
2019-04-14T20:04:35.682Z,7.10
2019-04-14T20:10:46.662Z,7.10
2019-04-14T20:12:50.849Z,7.10
2019-04-14T20:14:54.902Z,7.10
2019-04-14T20:17:16.791Z,7.10
2019-04-14T20:24:13.348Z,7.20
2019-04-14T20:39:18.889Z,7.20
2019-04-14T20:41:23.152Z,7.10
2019-04-14T20:43:27.095Z,7.10
2019-04-14T20:45:31.031Z,7.10
2019-04-14T20:47:35.137Z,7.10
2019-04-14T20:49:39.632Z,7.10
2019-04-14T20:51:44.285Z,7.10
2019-04-14T20:53:48.908Z,7.10
2019-04-14T20:55:52.803Z,7.10
2019-04-14T20:57:56.741Z,7.10
2019-04-14T21:00:00.759Z,7.10
2019-04-14T21:02:36.169Z,7.10
2019-04-14T21:04:59.552Z,7.10
2019-04-14T21:07:21.378Z,7.10
2019-04-14T21:09:56.544Z,7.10
2019-04-14T21:12:09.034Z,7.10
2019-04-14T21:14:47.278Z,7.10
2019-04-14T21:17:00.696Z,7.10
2019-04-14T21:19:17.721Z,7.10
2019-04-14T21:21:43.672Z,7.10
2019-04-14T21:23:58.338Z,7.10
2019-04-14T21:26:10.729Z,7.10
2019-04-14T21:28:52.008Z,7.10
2019-04-14T21:31:13.818Z,7.10
2019-04-14T21:33:28.338Z,7.10
2019-04-14T21:35:42.260Z,7.10
2019-04-14T21:38:05.211Z,7.10
2019-04-14T21:40:22.736Z,7.00
2019-04-14T21:42:28.690Z,7.10
2019-04-14T21:44:33.871Z,7.00
2019-04-14T21:46:37.832Z,7.00
2019-04-14T21:48:41.766Z,7.00
2019-04-14T21:50:45.728Z,7.00
2019-04-14T21:52:50.138Z,7.00
2019-04-14T21:54:54.181Z,7.00
2019-04-14T21:57:21.908Z,7.00
2019-04-14T21:59:28.886Z,7.00
2019-04-14T22:01:52.953Z,6.90
2019-04-14T22:04:05.038Z,7.00
2019-04-14T22:06:12.591Z,7.00
2019-04-14T22:08:25.250Z,6.90
2019-04-14T22:10:42.678Z,6.90
2019-04-14T22:12:47.698Z,6.90
2019-04-14T22:14:51.563Z,6.90
2019-04-14T22:16:55.683Z,6.90
2019-04-14T22:18:59.732Z,6.90
2019-04-14T22:21:03.747Z,6.90
2019-04-14T22:23:11.119Z,6.90
2019-04-14T22:25:15.902Z,6.90
2019-04-14T22:27:19.915Z,6.90
2019-04-14T22:29:26.968Z,6.90
2019-04-14T22:31:31.348Z,6.90
2019-04-14T22:33:35.835Z,6.90
2019-04-14T22:35:39.703Z,6.80
2019-04-14T22:37:43.803Z,6.80
2019-04-14T22:39:51.015Z,6.70
2019-04-14T22:41:55.682Z,6.80
2019-04-14T22:43:59.714Z,6.80
2019-04-14T22:46:03.868Z,6.80
2019-04-14T22:48:07.994Z,6.70
2019-04-14T22:50:12.235Z,6.70
2019-04-14T22:52:16.433Z,6.70
2019-04-14T22:54:20.361Z,6.70
2019-04-14T22:56:24.310Z,6.70
2019-04-14T22:58:28.279Z,6.70
2019-04-14T23:00:51.571Z,6.70
2019-04-14T23:03:06.328Z,6.60
2019-04-14T23:05:28.283Z,6.60
2019-04-14T23:07:54.246Z,6.60
2019-04-14T23:10:23.628Z,6.60
2019-04-14T23:12:49.600Z,6.60
2019-04-14T23:15:11.579Z,6.60
2019-04-14T23:17:32.919Z,6.60
2019-04-14T23:19:42.379Z,6.50
2019-04-14T23:21:58.156Z,6.50
2019-04-14T23:24:14.323Z,6.50
2019-04-14T23:26:18.217Z,6.50
2019-04-14T23:28:23.488Z,6.40
2019-04-14T23:30:27.473Z,6.40
2019-04-14T23:32:31.358Z,6.40
2019-04-14T23:34:35.195Z,6.40
2019-04-14T23:36:39.200Z,6.30
2019-04-14T23:38:43.107Z,6.30
2019-04-14T23:40:47.113Z,6.30
2019-04-14T23:42:51.035Z,6.20
2019-04-14T23:44:54.969Z,6.20
2019-04-14T23:46:59.007Z,6.20
2019-04-14T23:49:02.964Z,6.20
2019-04-14T23:51:07.190Z,6.20
2019-04-14T23:53:11.087Z,6.20
2019-04-14T23:55:15.037Z,6.20
2019-04-14T23:57:19.063Z,6.20
2019-04-14T23:59:23.076Z,6.20
